Tustin, Michigan
Current Conditions -  °F | °C
As of 2:15 AM on Friday 31 Oct 2014 (Local Time) from KCAD Reporting Station
Light Rain Light Rain  
Wind Chill: 32°   Ceiling: 1400
Heat Index: 39°   Visibility: 10mi
Dew Point: 37°   Wind: 10mph
Humidity: 93%   Direction: 310°NW
Pressure: 29.9"   Gusts: NA
Location:  44.1°N, 85.46°W
Report Text: KCAD 310615Z AUTO 31009KT 10SM -RA SCT009 BKN014 OVC036 03/02 A2990 RMK AO2 T00370026
Loading
Personal Weather Stations






























Interactive Weather Map
Tropical Storm Tracking
New forecast layout! Learn more

10-Day Weather Forecast

Advertisements
Track Severe Weather on mobile